Time;durP1;ratioP1;P1;durP2;ratioP2;P2;SDS_P1;SDS_P2;PMS_P1;PMS_P2;Temp;Humidity;BMP_temperature;BMP_pressure;BME280_temperature;BME280_humidity;BME280_pressure;Samples;Min_cycle;Max_cycle;Signal;HPM_P1;HPM_P2
2022/12/20 00:01:08;;;;;;;45.67;15.52;;;;;;;;;;5009719;28;20019;-58
2022/12/20 00:03:33;;;;;;;45.05;16.75;;;;;;;;;;5010654;28;20562;-58
2022/12/20 00:05:58;;;;;;;45.93;15.87;;;;;;;;;;5008947;28;20101;-58
2022/12/20 00:08:23;;;;;;;50.20;16.67;;;;;;;;;;5011582;28;20469;-59
2022/12/20 00:10:49;;;;;;;45.70;16.33;;;;;;;;;;5010097;28;20030;-59
2022/12/20 00:13:14;;;;;;;48.43;16.53;;;;;;;;;;5011548;28;20022;-58
2022/12/20 00:15:39;;;;;;;45.63;16.20;;;;;;;;;;5008181;28;20044;-58
2022/12/20 00:18:04;;;;;;;43.33;15.43;;;;;;;;;;5008233;28;20025;-58
2022/12/20 00:20:29;;;;;;;51.83;17.30;;;;;;;;;;5009011;28;20050;-59
2022/12/20 00:22:55;;;;;;;45.40;15.88;;;;;;;;;;5010100;28;20366;-58
2022/12/20 00:25:20;;;;;;;42.17;16.10;;;;;;;;;;5010696;28;20028;-58
2022/12/20 00:27:48;;;;;;;42.13;16.27;;;;;;;;;;5010260;28;20025;-59
2022/12/20 00:30:14;;;;;;;45.28;16.20;;;;;;;;;;5005397;28;20028;-57
2022/12/20 00:32:39;;;;;;;48.30;16.45;;;;;;;;;;5008623;28;20112;-58
2022/12/20 00:35:04;;;;;;;41.40;15.00;;;;;;;;;;5010089;28;20030;-57
2022/12/20 00:37:30;;;;;;;43.75;16.05;;;;;;;;;;5011943;28;20444;-61
2022/12/20 00:39:55;;;;;;;44.90;15.90;;;;;;;;;;5010889;28;20033;-58
2022/12/20 00:42:20;;;;;;;48.30;16.53;;;;;;;;;;5011745;28;20436;-58
2022/12/20 00:44:45;;;;;;;49.47;17.47;;;;;;;;;;5004746;28;20040;-58
2022/12/20 00:47:10;;;;;;;50.87;17.00;;;;;;;;;;5008694;28;20030;-63
2022/12/20 00:49:36;;;;;;;45.47;15.73;;;;;;;;;;5012425;28;20032;-58
2022/12/20 00:52:01;;;;;;;46.08;15.70;;;;;;;;;;5008287;28;20034;-58
2022/12/20 00:54:26;;;;;;;44.60;15.98;;;;;;;;;;5010293;28;20420;-58
2022/12/20 00:56:51;;;;;;;43.30;16.00;;;;;;;;;;5007531;28;20045;-58
2022/12/20 00:59:16;;;;;;;46.37;15.47;;;;;;;;;;5011063;28;20099;-58
2022/12/20 01:01:42;;;;;;;43.10;15.17;;;;;;;;;;5009107;28;20422;-58
2022/12/20 01:04:07;;;;;;;44.83;15.37;;;;;;;;;;5009964;28;20088;-59
2022/12/20 01:06:32;;;;;;;41.47;14.57;;;;;;;;;;5008270;28;20449;-59
2022/12/20 01:08:58;;;;;;;42.53;15.30;;;;;;;;;;5008904;28;20038;-59
2022/12/20 01:11:30;;;;;;;51.08;16.15;;;;;;;;;;5008619;28;20029;-58
2022/12/20 01:13:56;;;;;;;44.88;15.90;;;;;;;;;;5010712;28;20045;-61
2022/12/20 01:16:29;;;;;;;45.97;16.05;;;;;;;;;;5009699;28;20033;-59
2022/12/20 01:18:54;;;;;;;;;;;;;;;;;;5011111;28;20026;-60
2022/12/20 01:21:21;;;;;;;42.33;15.20;;;;;;;;;;5007737;28;19909;-59
2022/12/20 01:23:46;;;;;;;42.17;15.63;;;;;;;;;;5010236;28;20397;-59
2022/12/20 01:26:13;;;;;;;40.77;13.87;;;;;;;;;;5011789;28;20033;-59
2022/12/20 01:28:39;;;;;;;39.20;13.75;;;;;;;;;;5009296;28;20026;-59
2022/12/20 01:31:06;;;;;;;42.22;15.40;;;;;;;;;;5007967;28;20049;-58
2022/12/20 01:33:31;;;;;;;41.03;16.75;;;;;;;;;;5008049;28;20021;-59
2022/12/20 01:35:57;;;;;;;45.03;15.33;;;;;;;;;;5008114;28;20515;-59
2022/12/20 01:38:22;;;;;;;47.25;16.60;;;;;;;;;;5009235;28;20026;-59
2022/12/20 01:40:48;;;;;;;43.27;16.50;;;;;;;;;;5011634;28;20037;-59
2022/12/20 01:43:13;;;;;;;45.33;15.57;;;;;;;;;;5009904;28;20437;-58
2022/12/20 01:45:39;;;;;;;47.72;16.98;;;;;;;;;;5009281;28;20035;-59
2022/12/20 01:48:04;;;;;;;40.07;14.73;;;;;;;;;;5005933;28;20028;-57
2022/12/20 01:50:29;;;;;;;45.43;14.63;;;;;;;;;;5009408;28;20397;-57
2022/12/20 01:52:55;;;;;;;49.70;16.48;;;;;;;;;;5008886;28;20460;-57
2022/12/20 01:55:25;;;;;;;42.13;14.13;;;;;;;;;;5008309;28;20351;-58
2022/12/20 01:57:53;;;;;;;43.95;15.93;;;;;;;;;;5006736;28;20034;-58
2022/12/20 02:00:19;;;;;;;43.60;16.15;;;;;;;;;;5003086;28;20045;-58
2022/12/20 02:02:45;;;;;;;47.35;16.38;;;;;;;;;;5010961;28;20050;-57
2022/12/20 02:05:13;;;;;;;48.35;17.02;;;;;;;;;;5010784;28;20030;-58
2022/12/20 02:07:38;;;;;;;40.70;15.27;;;;;;;;;;5007991;28;20088;-57
2022/12/20 02:10:04;;;;;;;43.37;15.43;;;;;;;;;;5008985;28;20027;-57
2022/12/20 02:12:50;;;;;;;44.17;16.73;;;;;;;;;;5008021;28;20544;-58
2022/12/20 02:15:31;;;;;;;45.13;15.68;;;;;;;;;;5010557;28;20560;-57
2022/12/20 02:18:05;;;;;;;44.28;16.73;;;;;;;;;;5008934;28;20080;-58
2022/12/20 02:20:37;;;;;;;43.78;16.00;;;;;;;;;;5009757;28;20068;-57
2022/12/20 02:23:21;;;;;;;39.45;13.57;;;;;;;;;;5000553;28;20379;-58
2022/12/20 02:26:04;;;;;;;43.50;14.82;;;;;;;;;;5003823;28;20025;-58
2022/12/20 02:28:35;;;;;;;45.88;16.27;;;;;;;;;;5008732;28;20014;-56
2022/12/20 02:31:03;;;;;;;39.95;15.20;;;;;;;;;;5008311;28;20072;-57
2022/12/20 02:33:28;;;;;;;42.92;15.15;;;;;;;;;;5009308;28;20037;-57
2022/12/20 02:35:53;;;;;;;41.17;14.93;;;;;;;;;;5004551;28;20022;-57
2022/12/20 02:38:24;;;;;;;47.63;16.27;;;;;;;;;;5007667;28;20026;-57
2022/12/20 02:40:53;;;;;;;41.10;15.70;;;;;;;;;;5006735;28;20048;-56
2022/12/20 02:46:04;;;;;;;41.50;14.98;;;;;;;;;;5009694;28;20056;-56
2022/12/20 02:48:30;;;;;;;39.45;15.00;;;;;;;;;;5008786;28;20465;-57
2022/12/20 02:50:57;;;;;;;43.38;15.10;;;;;;;;;;5008222;28;20033;-56
2022/12/20 02:53:22;;;;;;;41.25;13.52;;;;;;;;;;5010306;28;20032;-57
2022/12/20 02:55:57;;;;;;;42.90;15.83;;;;;;;;;;5010429;28;20017;-56
2022/12/20 02:58:28;;;;;;;38.03;14.57;;;;;;;;;;5009219;28;20028;-56
2022/12/20 03:00:55;;;;;;;42.42;15.10;;;;;;;;;;5007743;28;20510;-56
2022/12/20 03:03:23;;;;;;;39.85;15.10;;;;;;;;;;5008061;28;20489;-55
2022/12/20 03:05:50;;;;;;;40.15;14.50;;;;;;;;;;5008159;28;20512;-56
2022/12/20 03:08:15;;;;;;;40.90;15.45;;;;;;;;;;5009064;28;20045;-56
2022/12/20 03:10:40;;;;;;;41.17;15.18;;;;;;;;;;5011897;28;20476;-56
2022/12/20 03:13:06;;;;;;;41.73;15.80;;;;;;;;;;5011465;28;20056;-56
2022/12/20 03:15:31;;;;;;;43.05;14.75;;;;;;;;;;5013227;28;20362;-56
2022/12/20 03:17:56;;;;;;;42.60;15.73;;;;;;;;;;5012649;28;20541;-56
2022/12/20 03:20:22;;;;;;;42.37;15.73;;;;;;;;;;5006243;28;20025;-56
2022/12/20 03:22:47;;;;;;;44.00;15.98;;;;;;;;;;5010885;28;20362;-56
2022/12/20 03:25:12;;;;;;;40.73;15.30;;;;;;;;;;5009402;28;20037;-56
2022/12/20 03:27:37;;;;;;;41.90;16.13;;;;;;;;;;5012218;28;20112;-56
2022/12/20 03:30:03;;;;;;;39.63;14.97;;;;;;;;;;5014232;28;20069;-56
2022/12/20 03:32:28;;;;;;;47.40;15.40;;;;;;;;;;5011992;28;20052;-60
2022/12/20 03:34:53;;;;;;;40.57;14.80;;;;;;;;;;5011799;28;20381;-56
2022/12/20 03:37:19;;;;;;;42.47;15.43;;;;;;;;;;5010188;28;20042;-57
2022/12/20 03:39:44;;;;;;;42.50;14.20;;;;;;;;;;5011848;28;20021;-56
2022/12/20 03:42:09;;;;;;;41.50;15.20;;;;;;;;;;5012994;28;20037;-56
2022/12/20 03:44:34;;;;;;;42.20;15.97;;;;;;;;;;5011926;28;20018;-56
2022/12/20 03:47:00;;;;;;;40.28;15.20;;;;;;;;;;5010230;28;20125;-56
2022/12/20 03:49:25;;;;;;;42.53;14.63;;;;;;;;;;5009632;28;20095;-56
2022/12/20 03:51:50;;;;;;;39.13;14.43;;;;;;;;;;5011266;28;20030;-56
2022/12/20 03:54:15;;;;;;;41.92;15.77;;;;;;;;;;5009583;28;20022;-56
2022/12/20 03:56:40;;;;;;;42.83;15.17;;;;;;;;;;5009057;28;20026;-56
2022/12/20 03:59:06;;;;;;;46.63;16.83;;;;;;;;;;5009941;28;20160;-55
2022/12/20 04:01:35;;;;;;;39.77;14.00;;;;;;;;;;5010025;28;20325;-56
2022/12/20 04:04:00;;;;;;;39.63;14.55;;;;;;;;;;5011153;28;20042;-56
2022/12/20 04:06:25;;;;;;;38.70;14.82;;;;;;;;;;5011380;28;20026;-55
2022/12/20 04:08:51;;;;;;;40.40;14.03;;;;;;;;;;5010369;28;20441;-55
2022/12/20 04:11:16;;;;;;;39.70;14.20;;;;;;;;;;5012097;28;20022;-54
2022/12/20 04:13:42;;;;;;;38.13;14.80;;;;;;;;;;5011768;28;20050;-55
2022/12/20 04:16:07;;;;;;;42.58;15.15;;;;;;;;;;5011285;28;20113;-55
2022/12/20 04:18:32;;;;;;;42.20;16.27;;;;;;;;;;5008718;28;20539;-55
2022/12/20 04:20:59;;;;;;;40.40;15.17;;;;;;;;;;5008968;28;20032;-55
2022/12/20 04:23:24;;;;;;;42.60;15.20;;;;;;;;;;5006613;28;20037;-55
2022/12/20 04:25:49;;;;;;;41.27;15.87;;;;;;;;;;5006993;28;20076;-56
2022/12/20 04:28:14;;;;;;;44.73;15.10;;;;;;;;;;5009415;28;20592;-55
2022/12/20 04:30:39;;;;;;;42.67;17.00;;;;;;;;;;5010231;28;20022;-56
2022/12/20 04:33:04;;;;;;;38.10;14.13;;;;;;;;;;5009592;28;20021;-56
2022/12/20 04:35:29;;;;;;;41.77;14.90;;;;;;;;;;5007748;28;20022;-56
2022/12/20 04:37:55;;;;;;;45.60;16.23;;;;;;;;;;5010586;28;20052;-56
2022/12/20 04:40:20;;;;;;;44.17;16.37;;;;;;;;;;5007684;28;20024;-56
2022/12/20 04:42:45;;;;;;;48.27;16.23;;;;;;;;;;5009497;28;20092;-56
2022/12/20 04:45:10;;;;;;;38.83;15.27;;;;;;;;;;5011569;28;20384;-57
2022/12/20 04:47:35;;;;;;;42.67;16.30;;;;;;;;;;5011584;28;20033;-57
2022/12/20 04:50:00;;;;;;;38.87;15.80;;;;;;;;;;5012459;28;20026;-56
2022/12/20 04:55:10;;;;;;;46.03;16.00;;;;;;;;;;5008775;28;20495;-57
2022/12/20 04:57:35;;;;;;;45.13;16.63;;;;;;;;;;5010974;28;20104;-57
2022/12/20 05:00:00;;;;;;;45.97;16.23;;;;;;;;;;5007097;28;20018;-57
2022/12/20 05:02:25;;;;;;;43.70;16.50;;;;;;;;;;5011439;28;20473;-57
2022/12/20 05:04:50;;;;;;;48.67;16.87;;;;;;;;;;5006480;28;20040;-57
2022/12/20 05:07:15;;;;;;;42.83;17.40;;;;;;;;;;5010708;28;20034;-55
2022/12/20 05:09:41;;;;;;;40.57;14.60;;;;;;;;;;5011143;28;20025;-56
2022/12/20 05:12:06;;;;;;;44.13;16.60;;;;;;;;;;5008230;28;20030;-55
2022/12/20 05:14:31;;;;;;;43.90;15.63;;;;;;;;;;5008749;28;20037;-54
2022/12/20 05:16:56;;;;;;;43.73;16.70;;;;;;;;;;5008037;28;20097;-56
2022/12/20 05:19:21;;;;;;;44.30;15.07;;;;;;;;;;5006077;28;20086;-56
2022/12/20 05:27:14;;;;;;;43.67;15.95;;;;;;;;;;5003841;28;20543;-56
2022/12/20 05:29:39;;;;;;;37.77;13.97;;;;;;;;;;5005442;28;20068;-56
2022/12/20 05:32:04;;;;;;;41.10;15.33;;;;;;;;;;5001275;28;20037;-56
2022/12/20 05:34:29;;;;;;;40.40;14.87;;;;;;;;;;5002471;28;20108;-56
2022/12/20 05:36:55;;;;;;;44.83;15.50;;;;;;;;;;5007335;28;20017;-56
2022/12/20 05:39:20;;;;;;;39.57;15.77;;;;;;;;;;5005747;28;20018;-56
2022/12/20 05:41:45;;;;;;;40.58;14.95;;;;;;;;;;4996933;28;20501;-56
2022/12/20 05:44:10;;;;;;;40.70;14.60;;;;;;;;;;5002231;28;20089;-56
2022/12/20 05:46:35;;;;;;;42.77;16.50;;;;;;;;;;5006529;28;20034;-56
2022/12/20 05:49:01;;;;;;;40.43;14.57;;;;;;;;;;5007855;28;20040;-56
2022/12/20 05:51:26;;;;;;;40.13;14.73;;;;;;;;;;5007318;28;20084;-56
2022/12/20 05:53:51;;;;;;;39.40;15.10;;;;;;;;;;5006560;28;20473;-56
2022/12/20 05:56:16;;;;;;;38.53;14.00;;;;;;;;;;5000542;28;20018;-56
2022/12/20 05:58:41;;;;;;;40.43;15.80;;;;;;;;;;5003400;28;20025;-56
2022/12/20 06:01:08;;;;;;;40.57;15.27;;;;;;;;;;5001280;28;20115;-57
2022/12/20 06:03:33;;;;;;;36.28;14.13;;;;;;;;;;4999322;28;20109;-56
2022/12/20 06:05:58;;;;;;;40.33;14.97;;;;;;;;;;5002042;28;20511;-57
2022/12/20 06:08:24;;;;;;;34.42;12.88;;;;;;;;;;5004753;28;20466;-60
2022/12/20 06:10:49;;;;;;;38.58;14.50;;;;;;;;;;5002178;28;20080;-60
2022/12/20 06:13:14;;;;;;;35.80;13.48;;;;;;;;;;5007208;23;20058;-58
2022/12/20 06:15:39;;;;;;;35.93;14.77;;;;;;;;;;4989431;28;20561;-60
2022/12/20 06:18:05;;;;;;;37.63;14.47;;;;;;;;;;4987458;28;20030;-59
2022/12/20 06:20:31;;;;;;;36.10;14.57;;;;;;;;;;4985532;28;20030;-59
2022/12/20 06:22:56;;;;;;;37.80;13.68;;;;;;;;;;4991379;28;20018;-59
2022/12/20 06:25:22;;;;;;;37.17;13.80;;;;;;;;;;4987852;28;20101;-58
2022/12/20 06:27:47;;;;;;;38.13;15.30;;;;;;;;;;4981837;28;20419;-58
2022/12/20 06:30:12;;;;;;;37.20;13.77;;;;;;;;;;4985280;28;20029;-58
2022/12/20 06:32:38;;;;;;;36.70;15.00;;;;;;;;;;4989533;28;20069;-59
2022/12/20 06:35:03;;;;;;;34.40;14.00;;;;;;;;;;4991501;28;20018;-59
2022/12/20 06:37:29;;;;;;;34.58;14.25;;;;;;;;;;4991544;28;20537;-59
2022/12/20 06:39:54;;;;;;;35.93;13.77;;;;;;;;;;4991169;28;20054;-59
2022/12/20 06:42:19;;;;;;;36.05;14.23;;;;;;;;;;4990325;28;20045;-59
2022/12/20 06:44:44;;;;;;;35.78;14.48;;;;;;;;;;4990216;28;20578;-59
2022/12/20 06:47:09;;;;;;;39.17;14.27;;;;;;;;;;4991320;28;20112;-59
2022/12/20 06:49:35;;;;;;;41.63;14.88;;;;;;;;;;4991041;28;20026;-58
2022/12/20 06:52:00;;;;;;;36.03;13.60;;;;;;;;;;4990256;28;20042;-59
2022/12/20 06:54:25;;;;;;;38.47;13.87;;;;;;;;;;4990376;28;20470;-60
2022/12/20 06:56:50;;;;;;;36.50;13.20;;;;;;;;;;4991157;28;20038;-59
2022/12/20 06:59:16;;;;;;;36.67;14.33;;;;;;;;;;4988536;28;20033;-61
2022/12/20 07:01:41;;;;;;;37.83;14.53;;;;;;;;;;4986352;28;20487;-60
2022/12/20 07:04:06;;;;;;;37.70;14.57;;;;;;;;;;4990654;28;20030;-59
2022/12/20 07:06:31;;;;;;;36.27;12.97;;;;;;;;;;4991031;28;20022;-59
2022/12/20 07:08:56;;;;;;;35.60;13.77;;;;;;;;;;4991388;28;20091;-59
2022/12/20 07:11:22;;;;;;;36.97;15.07;;;;;;;;;;4990775;28;20461;-59
2022/12/20 07:13:49;;;;;;;36.70;14.77;;;;;;;;;;4987933;28;20053;-56
2022/12/20 07:16:14;;;;;;;37.17;14.40;;;;;;;;;;4981368;28;20037;-55
2022/12/20 07:18:39;;;;;;;35.63;14.37;;;;;;;;;;4987222;28;20023;-56
2022/12/20 07:21:04;;;;;;;38.10;14.53;;;;;;;;;;4986331;28;20038;-59
2022/12/20 07:23:30;;;;;;;36.50;14.50;;;;;;;;;;4986826;28;20631;-56
2022/12/20 07:25:55;;;;;;;34.17;13.02;;;;;;;;;;4985984;28;20144;-56
2022/12/20 07:28:21;;;;;;;39.63;15.23;;;;;;;;;;4985634;28;20027;-56
2022/12/20 07:30:46;;;;;;;38.60;15.40;;;;;;;;;;4988724;28;20381;-55
2022/12/20 07:33:11;;;;;;;40.73;14.83;;;;;;;;;;4984344;28;20557;-56
2022/12/20 07:35:36;;;;;;;36.90;14.20;;;;;;;;;;4986936;28;20033;-56
2022/12/20 07:38:02;;;;;;;36.93;14.77;;;;;;;;;;4987850;28;20026;-56
2022/12/20 07:40:27;;;;;;;40.47;15.23;;;;;;;;;;4989128;28;20022;-56
2022/12/20 07:42:52;;;;;;;40.57;14.50;;;;;;;;;;4984139;28;20157;-56
2022/12/20 07:45:17;;;;;;;39.83;13.80;;;;;;;;;;4984466;28;20018;-57
2022/12/20 07:47:42;;;;;;;41.73;15.13;;;;;;;;;;4989862;28;20061;-55
2022/12/20 07:50:08;;;;;;;42.37;15.50;;;;;;;;;;4976615;28;20026;-56
2022/12/20 07:52:34;;;;;;;41.08;15.27;;;;;;;;;;4969694;28;20050;-55
2022/12/20 07:55:00;;;;;;;40.67;15.65;;;;;;;;;;4974332;28;20106;-56
2022/12/20 07:57:30;;;;;;;37.88;14.65;;;;;;;;;;4987456;28;20026;-55
2022/12/20 07:59:58;;;;;;;40.55;16.15;;;;;;;;;;4988126;28;20057;-54
2022/12/20 08:02:29;;;;;;;40.40;16.65;;;;;;;;;;4990525;28;20061;-55
2022/12/20 08:04:55;;;;;;;42.45;16.30;;;;;;;;;;4993711;28;20030;-55
2022/12/20 08:07:20;;;;;;;40.03;15.65;;;;;;;;;;4994364;28;20048;-54
2022/12/20 08:09:46;;;;;;;38.53;15.73;;;;;;;;;;4992535;28;20065;-56
2022/12/20 08:12:12;;;;;;;35.83;13.80;;;;;;;;;;5003619;28;20535;-55
2022/12/20 08:14:38;;;;;;;38.85;14.07;;;;;;;;;;5011537;28;20611;-56
2022/12/20 08:17:03;;;;;;;40.78;15.20;;;;;;;;;;5013662;28;20022;-56
2022/12/20 08:19:28;;;;;;;38.53;15.10;;;;;;;;;;5013411;28;20032;-55
2022/12/20 08:21:53;;;;;;;38.80;15.47;;;;;;;;;;5012567;28;20136;-56
2022/12/20 08:24:18;;;;;;;37.87;14.07;;;;;;;;;;5013395;28;20038;-56
2022/12/20 08:26:44;;;;;;;46.43;17.37;;;;;;;;;;5013255;28;20038;-57
2022/12/20 08:29:09;;;;;;;40.67;14.53;;;;;;;;;;5012844;28;20025;-56
2022/12/20 08:31:38;;;;;;;38.17;14.67;;;;;;;;;;5011144;28;20139;-56
2022/12/20 08:34:03;;;;;;;40.03;14.95;;;;;;;;;;4995554;28;20022;-56
2022/12/20 08:36:28;;;;;;;35.63;14.00;;;;;;;;;;4992877;28;20026;-56
2022/12/20 08:38:54;;;;;;;42.43;15.70;;;;;;;;;;4993224;28;20029;-56
2022/12/20 08:41:19;;;;;;;43.53;16.43;;;;;;;;;;4993190;28;20377;-56
2022/12/20 08:43:44;;;;;;;44.67;15.50;;;;;;;;;;4991667;28;20461;-56
2022/12/20 08:46:10;;;;;;;45.07;16.17;;;;;;;;;;4991516;28;20113;-56
2022/12/20 08:48:36;;;;;;;42.08;15.20;;;;;;;;;;4991153;28;20026;-55
2022/12/20 08:51:03;;;;;;;44.27;16.67;;;;;;;;;;4993005;28;20026;-56
2022/12/20 08:53:28;;;;;;;39.20;15.45;;;;;;;;;;4992029;28;20037;-56
2022/12/20 08:55:53;;;;;;;44.10;16.40;;;;;;;;;;4992858;28;20105;-56
2022/12/20 08:58:19;;;;;;;41.50;15.10;;;;;;;;;;4992986;28;20015;-56
2022/12/20 09:00:45;;;;;;;43.17;15.98;;;;;;;;;;4992705;28;20015;-57
2022/12/20 09:03:12;;;;;;;39.97;14.30;;;;;;;;;;4992147;28;20027;-56
2022/12/20 09:05:45;;;;;;;41.92;16.08;;;;;;;;;;4991754;28;20429;-56
2022/12/20 09:08:10;;;;;;;44.08;15.15;;;;;;;;;;4991901;28;20020;-56
2022/12/20 09:10:35;;;;;;;43.10;14.93;;;;;;;;;;4999851;28;20093;-56
2022/12/20 09:13:00;;;;;;;40.63;15.07;;;;;;;;;;5011627;28;20054;-56
2022/12/20 09:15:26;;;;;;;40.92;16.20;;;;;;;;;;5000314;28;20037;-57
2022/12/20 09:17:52;;;;;;;42.05;14.95;;;;;;;;;;4992492;28;20026;-56
2022/12/20 09:20:17;;;;;;;38.90;14.17;;;;;;;;;;4992535;28;20072;-57
2022/12/20 09:22:42;;;;;;;41.50;15.17;;;;;;;;;;4990458;28;20030;-56
2022/12/20 09:25:07;;;;;;;45.80;16.23;;;;;;;;;;4992338;28;20116;-56
2022/12/20 09:27:32;;;;;;;43.75;16.75;;;;;;;;;;4992284;28;20018;-55
2022/12/20 09:29:58;;;;;;;41.67;15.23;;;;;;;;;;4992483;28;20022;-56
2022/12/20 09:32:23;;;;;;;41.38;15.27;;;;;;;;;;4992388;28;20022;-56
2022/12/20 09:34:48;;;;;;;41.53;15.23;;;;;;;;;;4991302;28;20030;-57
2022/12/20 09:37:13;;;;;;;43.92;15.63;;;;;;;;;;4992475;28;20386;-57
2022/12/20 09:39:39;;;;;;;40.83;15.15;;;;;;;;;;4992537;28;20014;-56
2022/12/20 09:42:06;;;;;;;41.73;15.83;;;;;;;;;;4991730;28;20026;-56
2022/12/20 09:44:31;;;;;;;;;;;;;;;;;;4991892;28;20030;-56
2022/12/20 09:46:58;;;;;;;44.45;15.75;;;;;;;;;;4991950;28;19920;-56
2022/12/20 09:49:26;;;;;;;44.42;16.30;;;;;;;;;;4991931;28;20048;-56
2022/12/20 09:52:15;;;;;;;39.90;14.88;;;;;;;;;;4991780;28;20062;-56
2022/12/20 09:54:46;;;;;;;45.65;15.98;;;;;;;;;;4991339;28;20054;-56
2022/12/20 09:57:24;;;;;;;40.58;15.68;;;;;;;;;;4990229;28;20023;-56
2022/12/20 09:59:49;;;;;;;39.28;14.75;;;;;;;;;;4992065;28;20470;-56
2022/12/20 10:02:18;;;;;;;38.03;15.05;;;;;;;;;;4986515;28;20042;-57
2022/12/20 10:04:44;;;;;;;43.97;14.93;;;;;;;;;;4974222;28;20034;-56
2022/12/20 10:07:09;;;;;;;40.47;15.68;;;;;;;;;;4991112;28;20026;-56
2022/12/20 10:10:00;;;;;;;40.40;15.32;;;;;;;;;;5002228;28;20026;-56
2022/12/20 10:12:59;;;;;;;42.60;16.00;;;;;;;;;;5011160;28;20036;-58
2022/12/20 10:15:26;;;;;;;40.05;15.23;;;;;;;;;;4978635;28;20026;-56
2022/12/20 10:18:00;;;;;;;39.75;15.98;;;;;;;;;;4991019;28;20462;-57
2022/12/20 10:20:26;;;;;;;39.30;15.43;;;;;;;;;;4991249;28;20469;-57
2022/12/20 10:23:10;;;;;;;40.85;15.35;;;;;;;;;;4991482;28;20477;-57
2022/12/20 10:25:35;;;;;;;40.83;15.70;;;;;;;;;;4990114;28;20027;-57
2022/12/20 10:28:03;;;;;;;45.45;16.50;;;;;;;;;;4991217;28;20061;-57
2022/12/20 10:30:30;;;;;;;45.33;16.85;;;;;;;;;;4991017;28;20504;-57
2022/12/20 10:32:55;;;;;;;;;;;;;;;;;;4991616;28;20027;-57
2022/12/20 10:35:20;;;;;;;40.90;14.63;;;;;;;;;;4991624;28;19912;-58
2022/12/20 10:37:56;;;;;;;35.28;14.45;;;;;;;;;;4990539;28;20106;-57
2022/12/20 10:40:26;;;;;;;43.78;16.45;;;;;;;;;;4991275;28;20028;-58
2022/12/20 10:42:51;;;;;;;44.92;16.80;;;;;;;;;;4990838;28;20113;-56
2022/12/20 10:45:17;;;;;;;39.67;14.17;;;;;;;;;;4991332;28;20109;-57
2022/12/20 10:47:43;;;;;;;43.42;17.45;;;;;;;;;;4989917;28;20076;-57
2022/12/20 10:50:14;;;;;;;42.38;15.77;;;;;;;;;;4990840;28;20026;-58
2022/12/20 10:52:40;;;;;;;45.10;16.52;;;;;;;;;;4990890;28;20040;-58
2022/12/20 10:55:25;;;;;;;38.63;15.07;;;;;;;;;;4990811;28;20022;-58
2022/12/20 10:57:50;;;;;;;38.15;15.35;;;;;;;;;;4989660;28;20026;-57
2022/12/20 11:00:27;;;;;;;47.20;16.87;;;;;;;;;;4991146;28;20018;-58
2022/12/20 11:03:04;;;;;;;42.88;16.77;;;;;;;;;;4990864;28;20045;-58
2022/12/20 11:05:29;;;;;;;43.38;15.93;;;;;;;;;;4990886;28;20027;-58
2022/12/20 11:08:11;;;;;;;44.33;17.20;;;;;;;;;;4995588;28;20018;-57
2022/12/20 11:10:37;;;;;;;43.08;16.27;;;;;;;;;;4991052;28;20018;-57
2022/12/20 11:13:03;;;;;;;46.80;17.07;;;;;;;;;;4990040;28;20031;-57
2022/12/20 11:15:29;;;;;;;42.95;16.08;;;;;;;;;;4991105;28;20030;-57
2022/12/20 11:18:15;;;;;;;45.00;16.42;;;;;;;;;;4990524;28;20019;-57
2022/12/20 11:20:43;;;;;;;40.78;16.13;;;;;;;;;;4989318;28;20033;-58
2022/12/20 11:23:18;;;;;;;37.80;15.25;;;;;;;;;;4990700;28;20034;-58
2022/12/20 11:25:44;;;;;;;47.00;17.20;;;;;;;;;;4990974;28;20057;-58
2022/12/20 11:28:41;;;;;;;39.38;15.73;;;;;;;;;;4990614;28;20050;-59
2022/12/20 11:31:15;;;;;;;43.90;14.82;;;;;;;;;;4960075;28;20042;-59
2022/12/20 11:33:46;;;;;;;41.67;15.90;;;;;;;;;;4974961;28;20105;-59
2022/12/20 11:36:30;;;;;;;43.40;16.15;;;;;;;;;;4974976;28;20023;-59
2022/12/20 11:39:06;;;;;;;43.92;16.58;;;;;;;;;;4974469;28;20504;-59
2022/12/20 11:41:42;;;;;;;42.50;16.42;;;;;;;;;;4990272;28;20030;-59
2022/12/20 11:44:26;;;;;;;42.10;15.63;;;;;;;;;;4994633;28;20037;-58
2022/12/20 11:47:09;;;;;;;45.13;16.88;;;;;;;;;;4994815;28;20029;-59
2022/12/20 11:49:34;;;;;;;39.40;16.13;;;;;;;;;;4994323;28;20068;-59
2022/12/20 11:52:13;;;;;;;38.17;14.93;;;;;;;;;;4992622;28;20023;-58
2022/12/20 11:54:44;;;;;;;44.53;16.15;;;;;;;;;;4994197;28;20033;-58
2022/12/20 11:57:15;;;;;;;44.00;17.13;;;;;;;;;;4994287;28;20027;-57
2022/12/20 11:59:46;;;;;;;45.33;17.13;;;;;;;;;;4993969;28;20098;-57
2022/12/20 12:02:13;;;;;;;40.65;16.45;;;;;;;;;;4991425;28;20026;-57
2022/12/20 12:04:41;;;;;;;40.00;14.90;;;;;;;;;;4993835;28;20417;-58
2022/12/20 12:07:15;;;;;;;43.38;14.68;;;;;;;;;;5005085;28;20121;-57
2022/12/20 12:09:43;;;;;;;46.03;17.10;;;;;;;;;;5013438;28;20021;-57
2022/12/20 12:12:15;;;;;;;44.10;17.48;;;;;;;;;;5003173;28;20180;-57
2022/12/20 12:14:59;;;;;;;40.05;14.82;;;;;;;;;;4993469;28;20046;-57
2022/12/20 12:17:38;;;;;;;45.05;17.33;;;;;;;;;;4993919;28;20022;-56
2022/12/20 12:20:13;;;;;;;37.90;15.48;;;;;;;;;;4993513;28;20028;-56
2022/12/20 12:22:39;;;;;;;45.42;17.42;;;;;;;;;;4992210;28;20442;-57
2022/12/20 12:25:08;;;;;;;40.58;14.93;;;;;;;;;;4993476;28;20032;-57
2022/12/20 12:27:34;;;;;;;43.00;17.20;;;;;;;;;;4993545;28;20022;-56
2022/12/20 12:30:00;;;;;;;43.53;17.33;;;;;;;;;;4993361;28;20121;-56
2022/12/20 12:32:32;;;;;;;45.97;17.63;;;;;;;;;;4992262;28;20037;-56
2022/12/20 12:35:09;;;;;;;40.75;15.05;;;;;;;;;;4993168;28;20433;-56
2022/12/20 12:37:43;;;;;;;45.78;16.65;;;;;;;;;;4993370;28;20018;-57
2022/12/20 12:40:32;;;;;;;49.08;18.23;;;;;;;;;;4993183;28;20097;-57
2022/12/20 12:42:57;;;;;;;43.63;16.55;;;;;;;;;;4989813;28;20060;-58
2022/12/20 12:45:27;;;;;;;45.13;16.97;;;;;;;;;;4993329;28;20462;-58
2022/12/20 12:47:55;;;;;;;43.45;16.08;;;;;;;;;;4992972;28;20038;-57
2022/12/20 12:50:26;;;;;;;45.05;16.98;;;;;;;;;;4993013;28;20406;-58
2022/12/20 12:52:53;;;;;;;43.28;15.18;;;;;;;;;;4991764;28;20057;-55
2022/12/20 12:55:36;;;;;;;44.70;16.70;;;;;;;;;;4992890;28;20481;-56
2022/12/20 12:58:21;;;;;;;42.95;16.58;;;;;;;;;;4993025;28;20113;-56
2022/12/20 13:00:48;;;;;;;45.65;17.80;;;;;;;;;;4993014;28;20049;-57
2022/12/20 13:03:15;;;;;;;46.35;16.90;;;;;;;;;;4991393;28;20061;-59
2022/12/20 13:05:41;;;;;;;45.60;16.77;;;;;;;;;;5003628;28;20167;-57
2022/12/20 13:08:14;;;;;;;42.90;16.98;;;;;;;;;;5012163;28;20021;-56
2022/12/20 13:10:39;;;;;;;45.40;17.13;;;;;;;;;;5012439;28;20160;-57
2022/12/20 13:13:12;;;;;;;42.90;16.17;;;;;;;;;;5009190;28;20017;-57
2022/12/20 13:15:40;;;;;;;45.65;16.88;;;;;;;;;;4987485;28;20041;-57
2022/12/20 13:18:08;;;;;;;45.58;15.35;;;;;;;;;;4992426;28;20015;-57
2022/12/20 13:20:34;;;;;;;43.20;16.70;;;;;;;;;;4992670;28;20037;-57
2022/12/20 13:23:09;;;;;;;41.30;16.50;;;;;;;;;;4992029;28;20018;-57
2022/12/20 13:25:35;;;;;;;44.33;16.05;;;;;;;;;;4991395;28;20457;-57
2022/12/20 13:28:30;;;;;;;48.50;16.75;;;;;;;;;;4992090;28;20030;-57
2022/12/20 13:31:01;;;;;;;45.00;16.48;;;;;;;;;;4983066;28;20038;-57
2022/12/20 13:33:45;;;;;;;47.53;17.23;;;;;;;;;;4992401;28;20023;-62
2022/12/20 13:36:10;;;;;;;48.40;17.13;;;;;;;;;;4989993;28;20026;-57
2022/12/20 13:38:42;;;;;;;41.53;15.68;;;;;;;;;;4992320;28;20030;-57
2022/12/20 13:41:25;;;;;;;47.88;16.92;;;;;;;;;;4992322;28;20022;-56
2022/12/20 13:43:51;;;;;;;45.83;16.83;;;;;;;;;;4992291;28;20027;-57
2022/12/20 13:46:21;;;;;;;48.38;16.95;;;;;;;;;;4992031;28;20496;-57
2022/12/20 13:48:46;;;;;;;45.35;16.67;;;;;;;;;;4990339;28;20033;-57
2022/12/20 13:51:16;;;;;;;49.20;17.33;;;;;;;;;;4992499;28;20026;-57
2022/12/20 13:53:48;;;;;;;38.70;14.57;;;;;;;;;;4991171;28;20025;-57
2022/12/20 13:56:23;;;;;;;47.95;17.25;;;;;;;;;;4991615;28;20069;-58
2022/12/20 13:58:48;;;;;;;49.60;18.83;;;;;;;;;;4990990;28;20104;-58
2022/12/20 14:01:13;;;;;;;49.07;17.03;;;;;;;;;;4991522;28;20478;-57
2022/12/20 14:03:40;;;;;;;47.90;17.17;;;;;;;;;;4995843;28;20029;-57
2022/12/20 14:06:08;;;;;;;47.60;17.73;;;;;;;;;;5011091;28;20080;-58
2022/12/20 14:08:36;;;;;;;51.67;17.90;;;;;;;;;;5000533;28;20038;-58
2022/12/20 14:11:12;;;;;;;45.72;17.23;;;;;;;;;;4991444;28;20030;-58
2022/12/20 14:13:37;;;;;;;52.05;17.85;;;;;;;;;;4991107;28;20120;-57
2022/12/20 14:16:06;;;;;;;42.22;15.52;;;;;;;;;;4988425;28;20022;-57
2022/12/20 14:18:32;;;;;;;50.53;17.92;;;;;;;;;;4987826;28;20049;-56
2022/12/20 14:20:58;;;;;;;44.97;17.43;;;;;;;;;;4982575;28;20585;-58
2022/12/20 14:23:38;;;;;;;49.25;16.83;;;;;;;;;;4984416;28;20472;-57
2022/12/20 14:26:05;;;;;;;46.28;15.13;;;;;;;;;;4980670;28;20077;-58
2022/12/20 14:28:35;;;;;;;50.95;18.05;;;;;;;;;;4987228;28;20076;-59
2022/12/20 14:31:02;;;;;;;45.13;16.90;;;;;;;;;;4984965;28;20109;-57
2022/12/20 14:33:37;;;;;;;45.33;16.23;;;;;;;;;;4985578;28;20023;-57